createdAt,value
2022-10-04T00:01:01.582Z,5.20
2022-10-04T00:03:33.183Z,3.10
2022-10-04T00:06:01.623Z,4.40
2022-10-04T00:08:36.325Z,2.88
2022-10-04T00:11:07.492Z,2.72
2022-10-04T00:13:35.970Z,5.30
2022-10-04T00:16:04.402Z,2.90
2022-10-04T00:18:38.709Z,4.28
2022-10-04T00:21:08.073Z,4.18
2022-10-04T00:23:48.365Z,3.03
2022-10-04T00:27:08.861Z,2.60
2022-10-04T00:29:38.543Z,2.97
2022-10-04T00:32:26.793Z,3.13
2022-10-04T00:34:55.356Z,2.60
2022-10-04T00:37:25.073Z,2.60
2022-10-04T00:40:13.128Z,3.25
2022-10-04T00:42:53.895Z,3.45
2022-10-04T00:45:35.690Z,4.07
2022-10-04T00:48:31.662Z,4.07
2022-10-04T00:51:04.000Z,3.15
2022-10-04T00:53:49.672Z,2.63
2022-10-04T00:56:24.401Z,3.15
2022-10-04T00:59:21.877Z,2.67
2022-10-04T01:01:54.163Z,2.50
2022-10-04T01:04:40.860Z,2.63
2022-10-04T01:07:09.406Z,2.63
2022-10-04T01:09:41.450Z,3.05
2022-10-04T01:12:15.804Z,4.40
2022-10-04T01:14:51.232Z,2.47
2022-10-04T01:17:19.964Z,3.50
2022-10-04T01:19:52.702Z,4.03
2022-10-04T01:22:41.579Z,5.07
2022-10-04T01:25:10.579Z,2.75
2022-10-04T01:27:42.730Z,2.35
2022-10-04T01:30:13.645Z,3.08
2022-10-04T01:32:42.059Z,3.63
2022-10-04T01:35:13.016Z,2.45
2022-10-04T01:37:42.719Z,3.22
2022-10-04T01:40:11.690Z,3.97
2022-10-04T01:42:44.770Z,2.33
2022-10-04T01:45:18.324Z,2.50
2022-10-04T01:47:49.846Z,2.55
2022-10-04T01:50:21.840Z,2.63
2022-10-04T01:52:53.121Z,4.47
2022-10-04T01:55:25.755Z,2.17
2022-10-04T01:57:56.384Z,4.93
2022-10-04T02:00:25.483Z,4.10
2022-10-04T02:02:55.364Z,3.45
2022-10-04T02:05:30.373Z,2.63
2022-10-04T02:08:03.470Z,2.72
2022-10-04T02:10:33.692Z,2.50
2022-10-04T02:13:02.149Z,2.53
2022-10-04T02:15:30.649Z,2.35
2022-10-04T02:17:59.040Z,2.53
2022-10-04T02:20:28.038Z,2.33
2022-10-04T02:22:59.510Z,2.38
2022-10-04T02:25:28.209Z,2.63
2022-10-04T02:27:56.850Z,2.28
2022-10-04T02:30:25.659Z,3.92
2022-10-04T02:32:57.789Z,3.28
2022-10-04T02:35:27.513Z,2.55
2022-10-04T02:38:05.469Z,2.28
2022-10-04T02:40:40.285Z,2.25
2022-10-04T02:43:13.485Z,2.17
2022-10-04T02:45:48.133Z,3.92
2022-10-04T02:48:31.541Z,3.25
2022-10-04T02:51:06.588Z,2.97
2022-10-04T02:53:44.092Z,4.05
2022-10-04T02:56:13.152Z,2.75
2022-10-04T02:58:41.732Z,2.40
2022-10-04T03:01:18.741Z,2.53
2022-10-04T03:03:47.682Z,2.33
2022-10-04T03:06:18.379Z,2.80
2022-10-04T03:08:50.175Z,2.20
2022-10-04T03:11:19.750Z,2.30
2022-10-04T03:13:50.124Z,2.70
2022-10-04T03:16:18.760Z,2.85
2022-10-04T03:18:47.285Z,2.63
2022-10-04T03:21:18.546Z,3.00
2022-10-04T03:23:48.347Z,2.67
2022-10-04T03:26:26.090Z,2.30
2022-10-04T03:28:54.617Z,2.80
2022-10-04T03:31:23.282Z,3.50
2022-10-04T03:33:51.935Z,2.30
2022-10-04T03:36:20.608Z,3.13
2022-10-04T03:38:50.605Z,2.60
2022-10-04T03:41:18.989Z,2.58
2022-10-04T03:43:49.643Z,2.20
2022-10-04T03:46:18.616Z,2.35
2022-10-04T03:48:50.306Z,2.38
2022-10-04T03:51:21.401Z,2.05
2022-10-04T03:53:53.535Z,2.80
2022-10-04T03:56:25.982Z,2.30
2022-10-04T03:58:54.672Z,2.75
2022-10-04T04:01:45.442Z,2.67
2022-10-04T04:04:22.391Z,2.83
2022-10-04T04:07:03.765Z,2.63
2022-10-04T04:09:40.631Z,3.35
2022-10-04T04:12:14.861Z,3.88
2022-10-04T04:14:43.427Z,2.35
2022-10-04T04:17:36.960Z,2.95
2022-10-04T04:20:08.880Z,2.75
2022-10-04T04:22:37.913Z,2.92
2022-10-04T04:25:10.085Z,2.38
2022-10-04T04:27:40.018Z,2.58
2022-10-04T04:30:09.422Z,2.45
2022-10-04T04:32:40.305Z,3.10
2022-10-04T04:35:24.089Z,2.10
2022-10-04T04:38:17.991Z,2.28
2022-10-04T04:40:47.872Z,2.35
2022-10-04T04:43:27.305Z,3.22
2022-10-04T04:46:22.699Z,2.58
2022-10-04T04:48:49.471Z,2.50
2022-10-04T04:51:21.352Z,2.10
2022-10-04T04:53:49.809Z,2.00
2022-10-04T04:56:23.613Z,2.83
2022-10-04T04:58:52.785Z,2.72
2022-10-04T05:01:25.815Z,5.15
2022-10-04T05:04:04.949Z,2.50
2022-10-04T05:06:34.995Z,2.33
2022-10-04T05:09:03.555Z,3.60
2022-10-04T05:11:35.496Z,2.80
2022-10-04T05:14:06.999Z,2.95
2022-10-04T05:16:40.080Z,2.85
2022-10-04T05:19:13.551Z,2.28
2022-10-04T05:21:44.644Z,3.28
2022-10-04T05:24:15.183Z,5.18
2022-10-04T05:26:45.026Z,3.97
2022-10-04T05:29:18.413Z,3.88
2022-10-04T05:31:49.235Z,5.18
2022-10-04T05:34:23.000Z,5.57
2022-10-04T05:37:07.725Z,4.47
2022-10-04T05:39:39.871Z,4.20
2022-10-04T05:42:15.433Z,2.42
2022-10-04T05:44:50.719Z,6.07
2022-10-04T05:47:22.956Z,4.10
2022-10-04T05:49:53.591Z,4.15
2022-10-04T05:52:30.958Z,3.47
2022-10-04T05:55:35.320Z,2.72
2022-10-04T05:58:26.015Z,3.92
2022-10-04T06:01:11.988Z,8.05
2022-10-04T06:04:21.297Z,3.00
2022-10-04T06:06:52.477Z,6.20
2022-10-04T06:09:45.645Z,5.68
2022-10-04T06:12:17.213Z,5.35
2022-10-04T06:15:03.915Z,4.15
2022-10-04T06:17:45.815Z,2.65
2022-10-04T06:21:04.644Z,3.53
2022-10-04T06:23:34.091Z,6.25
2022-10-04T06:26:05.194Z,4.32
2022-10-04T06:28:35.655Z,5.50
2022-10-04T06:31:33.705Z,2.60
2022-10-04T06:34:18.324Z,9.50
2022-10-04T06:37:09.784Z,5.22
2022-10-04T06:40:17.610Z,16.25
2022-10-04T06:42:57.733Z,13.80
2022-10-04T06:45:41.573Z,8.25
2022-10-04T06:48:27.069Z,17.00
2022-10-04T06:50:57.323Z,34.55
2022-10-04T06:53:29.358Z,33.65
2022-10-04T06:56:27.899Z,44.25
2022-10-04T06:59:18.646Z,43.92
2022-10-04T07:01:50.552Z,51.90
2022-10-04T07:04:49.947Z,52.40
2022-10-04T07:07:35.177Z,43.95
2022-10-04T07:10:24.902Z,39.58
2022-10-04T07:13:05.937Z,39.65
2022-10-04T07:15:37.915Z,38.70
2022-10-04T07:18:10.086Z,39.33
2022-10-04T07:20:39.849Z,43.65
2022-10-04T07:23:14.402Z,44.22
2022-10-04T07:25:46.383Z,39.25
2022-10-04T07:28:35.039Z,38.55
2022-10-04T07:31:06.465Z,32.45
2022-10-04T07:33:38.463Z,36.03
2022-10-04T07:36:11.433Z,40.38
2022-10-04T07:38:48.633Z,39.60
2022-10-04T07:41:23.267Z,30.75
2022-10-04T07:43:54.558Z,36.40
2022-10-04T07:46:45.110Z,32.85
2022-10-04T07:49:15.946Z,35.42
2022-10-04T07:52:06.999Z,31.38
2022-10-04T07:54:40.054Z,29.15
2022-10-04T07:57:14.544Z,33.38
2022-10-04T07:59:49.709Z,27.65
2022-10-04T08:02:30.848Z,33.28
2022-10-04T08:05:08.231Z,26.75
2022-10-04T08:07:49.615Z,25.40
2022-10-04T08:10:25.936Z,27.88
2022-10-04T08:13:03.401Z,37.72
2022-10-04T08:15:39.808Z,35.42
2022-10-04T08:18:26.860Z,23.52
2022-10-04T08:20:58.230Z,21.83
2022-10-04T08:24:11.651Z,23.05
2022-10-04T08:26:50.142Z,24.60
2022-10-04T08:30:00.399Z,22.80
2022-10-04T08:32:47.200Z,26.67
2022-10-04T08:35:37.654Z,22.27
2022-10-04T08:38:42.557Z,23.60
2022-10-04T08:42:04.887Z,22.55
2022-10-04T08:45:06.466Z,26.88
2022-10-04T08:48:18.360Z,22.08
2022-10-04T08:51:38.695Z,16.13
2022-10-04T08:54:37.069Z,17.23
2022-10-04T08:57:30.505Z,19.50
2022-10-04T09:00:15.921Z,62.40
2022-10-04T09:03:35.702Z,37.72
2022-10-04T09:06:38.135Z,29.38
2022-10-04T09:10:02.528Z,35.63
2022-10-04T09:12:47.233Z,30.45
2022-10-04T09:15:27.774Z,31.08
2022-10-04T09:18:02.769Z,28.58
2022-10-04T09:20:44.705Z,26.15
2022-10-04T09:24:02.095Z,29.65
2022-10-04T09:26:35.017Z,18.70
2022-10-04T09:29:42.576Z,27.60
2022-10-04T09:32:31.648Z,28.15
2022-10-04T09:35:36.483Z,21.83
2022-10-04T09:38:23.442Z,23.25
2022-10-04T09:41:15.264Z,20.85
2022-10-04T09:44:11.083Z,23.60
2022-10-04T09:47:03.754Z,21.95
2022-10-04T09:50:05.890Z,26.20
2022-10-04T09:52:41.994Z,20.90
2022-10-04T09:55:35.205Z,24.38
2022-10-04T09:58:43.412Z,22.98
2022-10-04T10:01:16.728Z,24.05
2022-10-04T10:04:22.946Z,21.20
2022-10-04T10:07:03.597Z,19.25
2022-10-04T10:09:55.037Z,22.25
2022-10-04T10:13:19.458Z,18.60
2022-10-04T10:15:59.669Z,18.80
2022-10-04T10:18:39.986Z,18.73
2022-10-04T10:21:45.521Z,18.05
2022-10-04T10:24:37.653Z,21.67
2022-10-04T10:27:25.157Z,15.02
2022-10-04T10:30:17.620Z,15.65
2022-10-04T10:33:38.121Z,16.02
2022-10-04T10:36:27.995Z,16.17
2022-10-04T10:39:15.014Z,17.83
2022-10-04T10:41:57.541Z,14.15
2022-10-04T10:44:34.773Z,11.75
2022-10-04T10:47:38.706Z,14.02
2022-10-04T10:50:55.147Z,13.80
2022-10-04T10:53:41.527Z,13.38
2022-10-04T10:56:44.150Z,11.73
2022-10-04T11:00:00.337Z,13.57
2022-10-04T11:03:13.217Z,12.77
2022-10-04T11:06:30.567Z,14.75
2022-10-04T11:09:29.646Z,16.30
2022-10-04T11:12:46.069Z,9.02
2022-10-04T11:16:01.410Z,10.93
2022-10-04T11:19:18.545Z,12.52
2022-10-04T11:22:44.881Z,12.80
2022-10-04T11:25:29.959Z,7.68
2022-10-04T11:28:02.476Z,14.00
2022-10-04T11:30:38.391Z,9.25
2022-10-04T11:34:02.540Z,8.77
2022-10-04T11:36:43.010Z,7.28
2022-10-04T11:40:01.428Z,8.07
2022-10-04T11:42:48.613Z,6.05
2022-10-04T11:45:39.868Z,7.55
2022-10-04T11:48:19.929Z,10.05
2022-10-04T11:51:11.269Z,7.15
2022-10-04T11:54:14.491Z,7.07
2022-10-04T11:56:59.822Z,8.57
2022-10-04T11:59:43.009Z,7.68
2022-10-04T12:03:08.040Z,6.75
2022-10-04T12:05:52.995Z,7.60
2022-10-04T12:08:34.318Z,4.25
2022-10-04T12:12:15.737Z,6.78
2022-10-04T12:14:54.905Z,7.13
2022-10-04T12:18:13.842Z,5.53
2022-10-04T12:21:28.974Z,7.40
2022-10-04T12:24:16.041Z,9.55
2022-10-04T12:27:39.179Z,5.25
2022-10-04T12:30:26.658Z,7.03
2022-10-04T12:33:12.217Z,4.63
2022-10-04T12:35:57.812Z,7.57
2022-10-04T12:38:39.400Z,3.90
2022-10-04T12:41:14.091Z,6.65
2022-10-04T12:43:46.748Z,4.40
2022-10-04T12:46:29.837Z,4.82
2022-10-04T12:49:14.837Z,5.28
2022-10-04T12:51:52.924Z,3.50
2022-10-04T12:54:36.080Z,4.25
2022-10-04T12:57:41.239Z,4.35
2022-10-04T13:00:19.114Z,3.40
2022-10-04T13:03:30.864Z,4.85
2022-10-04T13:06:07.332Z,6.18
2022-10-04T13:08:52.515Z,6.07
2022-10-04T13:11:33.527Z,4.35
2022-10-04T13:14:41.132Z,6.45
2022-10-04T13:17:28.061Z,3.03
2022-10-04T13:20:27.101Z,3.70
2022-10-04T13:22:58.511Z,3.83
2022-10-04T13:25:45.296Z,5.38
2022-10-04T13:28:23.227Z,4.68
2022-10-04T13:30:57.263Z,4.15
2022-10-04T13:33:29.620Z,6.22
2022-10-04T13:36:06.498Z,4.95
2022-10-04T13:39:19.854Z,5.75
2022-10-04T13:42:23.562Z,3.70
2022-10-04T13:45:18.484Z,5.03
2022-10-04T13:48:01.780Z,8.35
2022-10-04T13:50:48.275Z,4.45
2022-10-04T13:53:44.859Z,4.43
2022-10-04T13:56:40.532Z,2.70
2022-10-04T13:59:17.672Z,5.55
2022-10-04T14:02:40.500Z,4.82
2022-10-04T14:06:03.019Z,3.28
2022-10-04T14:09:01.196Z,4.88
2022-10-04T14:12:08.777Z,4.20
2022-10-04T14:15:25.933Z,2.95
2022-10-04T14:18:43.748Z,2.95
2022-10-04T14:21:45.263Z,7.10
2022-10-04T14:24:55.003Z,3.33
2022-10-04T14:28:06.206Z,5.32
2022-10-04T14:30:38.282Z,3.22
2022-10-04T14:33:55.217Z,4.05
2022-10-04T14:36:41.793Z,3.33
2022-10-04T14:39:42.703Z,4.47
2022-10-04T14:42:31.406Z,3.50
2022-10-04T14:45:32.916Z,3.08
2022-10-04T14:48:30.706Z,2.72
2022-10-04T14:51:19.793Z,3.10
2022-10-04T14:53:56.063Z,3.60
2022-10-04T14:56:53.406Z,3.40
2022-10-04T14:59:47.488Z,4.70
2022-10-04T15:02:43.798Z,3.75
2022-10-04T15:05:32.211Z,3.58
2022-10-04T15:08:24.375Z,4.20
2022-10-04T15:10:54.304Z,2.60
2022-10-04T15:13:26.527Z,2.97
2022-10-04T15:16:11.449Z,3.05
2022-10-04T15:18:53.601Z,2.75
2022-10-04T15:21:39.366Z,4.55
2022-10-04T15:24:29.185Z,4.53
2022-10-04T15:27:47.804Z,4.93
2022-10-04T15:30:37.770Z,2.60
2022-10-04T15:33:26.977Z,3.13
2022-10-04T15:36:50.324Z,4.95
2022-10-04T15:39:41.361Z,3.50
2022-10-04T15:42:15.238Z,3.60
2022-10-04T15:45:22.849Z,3.03
2022-10-04T15:48:33.946Z,2.60
2022-10-04T15:51:08.283Z,5.40
2022-10-04T15:54:12.653Z,6.13
2022-10-04T15:56:52.751Z,5.82
2022-10-04T15:59:35.428Z,7.30
2022-10-04T16:02:36.989Z,6.63
2022-10-04T16:05:16.586Z,4.15
2022-10-04T16:08:24.350Z,3.20
2022-10-04T16:11:08.468Z,5.03
2022-10-04T16:13:48.144Z,4.20
2022-10-04T16:16:36.086Z,4.97
2022-10-04T16:19:12.446Z,3.90
2022-10-04T16:21:51.845Z,3.88
2022-10-04T16:24:50.623Z,6.00
2022-10-04T16:27:51.353Z,4.30
2022-10-04T16:30:28.835Z,4.95
2022-10-04T16:33:30.278Z,3.53
2022-10-04T16:36:11.959Z,5.18
2022-10-04T16:39:01.804Z,4.30
2022-10-04T16:41:36.356Z,7.22
2022-10-04T16:44:04.841Z,4.75
2022-10-04T16:46:37.046Z,10.27
2022-10-04T16:49:19.917Z,3.67
2022-10-04T16:52:19.328Z,3.53
2022-10-04T16:55:22.416Z,5.40
2022-10-04T16:58:50.153Z,5.68
2022-10-04T17:01:42.205Z,4.10
2022-10-04T17:04:34.547Z,4.82
2022-10-04T17:07:14.293Z,5.25
2022-10-04T17:09:49.574Z,6.25
2022-10-04T17:12:22.855Z,3.88
2022-10-04T17:15:13.954Z,5.85
2022-10-04T17:17:47.691Z,5.78
2022-10-04T17:20:26.594Z,5.80
2022-10-04T17:23:14.109Z,5.38
2022-10-04T17:25:47.149Z,5.55
2022-10-04T17:28:29.289Z,5.03
2022-10-04T17:31:04.153Z,6.05
2022-10-04T17:33:44.062Z,8.85
2022-10-04T17:36:34.494Z,4.57
2022-10-04T17:39:24.240Z,9.68
2022-10-04T17:42:07.347Z,8.60
2022-10-04T17:45:00.705Z,5.78
2022-10-04T17:47:51.839Z,4.57
2022-10-04T17:50:40.389Z,6.03
2022-10-04T17:53:32.848Z,10.05
2022-10-04T17:56:02.252Z,7.10
2022-10-04T17:58:40.403Z,7.22
2022-10-04T18:01:14.569Z,8.45
2022-10-04T18:03:45.091Z,8.75
2022-10-04T18:06:21.254Z,10.57
2022-10-04T18:08:54.951Z,6.28
2022-10-04T18:11:29.917Z,9.40
2022-10-04T18:14:02.557Z,7.60
2022-10-04T18:16:33.336Z,7.25
2022-10-04T18:19:24.189Z,6.70
2022-10-04T18:21:56.714Z,5.97
2022-10-04T18:24:30.821Z,5.80
2022-10-04T18:27:05.759Z,6.68
2022-10-04T18:29:40.889Z,7.72
2022-10-04T18:32:35.503Z,8.35
2022-10-04T18:35:30.841Z,7.60
2022-10-04T18:38:22.521Z,4.70
2022-10-04T18:40:58.561Z,4.70
2022-10-04T18:43:33.323Z,6.82
2022-10-04T18:46:06.096Z,6.15
2022-10-04T18:48:53.183Z,5.95
2022-10-04T18:51:30.482Z,7.43
2022-10-04T18:54:17.809Z,5.65
2022-10-04T18:56:53.693Z,5.57
2022-10-04T18:59:49.605Z,7.07
2022-10-04T19:02:26.357Z,6.50
2022-10-04T19:05:04.639Z,7.40
2022-10-04T19:07:43.084Z,5.80
2022-10-04T19:10:28.412Z,7.35
2022-10-04T19:13:18.387Z,5.00
2022-10-04T19:16:20.999Z,7.43
2022-10-04T19:19:04.998Z,6.88
2022-10-04T19:21:44.890Z,6.03
2022-10-04T19:24:42.590Z,5.53
2022-10-04T19:27:17.895Z,7.72
2022-10-04T19:29:59.048Z,5.10
2022-10-04T19:32:32.863Z,6.32
2022-10-04T19:35:08.811Z,8.10
2022-10-04T19:37:42.370Z,7.97
2022-10-04T19:40:17.487Z,7.45
2022-10-04T19:42:50.486Z,6.28
2022-10-04T19:45:30.957Z,6.93
2022-10-04T19:48:00.950Z,5.45
2022-10-04T19:50:32.180Z,5.63
2022-10-04T19:53:04.425Z,8.15
2022-10-04T19:55:44.013Z,6.78
2022-10-04T19:58:26.682Z,7.78
2022-10-04T20:00:55.739Z,9.35
2022-10-04T20:03:24.300Z,7.35
2022-10-04T20:05:54.410Z,7.82
2022-10-04T20:08:55.714Z,6.25
2022-10-04T20:11:28.295Z,6.20
2022-10-04T20:14:55.178Z,7.90
2022-10-04T20:17:34.005Z,7.60
2022-10-04T20:20:02.681Z,9.02
2022-10-04T20:22:47.255Z,7.20
2022-10-04T20:25:50.787Z,7.72
2022-10-04T20:28:42.061Z,7.25
2022-10-04T20:31:12.104Z,7.55
2022-10-04T20:33:51.053Z,7.65
2022-10-04T20:36:52.218Z,7.80
2022-10-04T20:40:00.545Z,6.20
2022-10-04T20:42:32.964Z,9.02
2022-10-04T20:45:03.853Z,7.82
2022-10-04T20:47:40.521Z,7.50
2022-10-04T20:50:20.171Z,10.13
2022-10-04T20:52:49.838Z,7.68
2022-10-04T20:55:27.365Z,7.88
2022-10-04T20:58:00.285Z,5.70
2022-10-04T21:00:33.727Z,6.15
2022-10-04T21:03:17.293Z,10.25
2022-10-04T21:05:49.878Z,8.35
2022-10-04T21:08:26.111Z,7.72
2022-10-04T21:11:19.718Z,8.18
2022-10-04T21:13:55.697Z,6.80
2022-10-04T21:16:45.789Z,7.30
2022-10-04T21:19:45.937Z,10.13
2022-10-04T21:22:37.640Z,7.45
2022-10-04T21:25:31.108Z,8.05
2022-10-04T21:28:39.115Z,6.72
2022-10-04T21:31:09.249Z,9.32
2022-10-04T21:33:37.832Z,7.80
2022-10-04T21:36:07.287Z,8.45
2022-10-04T21:38:35.804Z,9.48
2022-10-04T21:41:04.575Z,7.88
2022-10-04T21:43:33.182Z,8.02
2022-10-04T21:46:01.890Z,8.95
2022-10-04T21:48:31.997Z,7.43
2022-10-04T21:51:00.619Z,11.32
2022-10-04T21:53:29.226Z,9.60
2022-10-04T21:55:57.763Z,8.23
2022-10-04T21:58:26.373Z,10.93
2022-10-04T22:00:54.913Z,8.70
2022-10-04T22:03:23.564Z,7.93
2022-10-04T22:05:53.520Z,9.82
2022-10-04T22:08:22.017Z,10.45
2022-10-04T22:10:55.489Z,9.18
2022-10-04T22:13:26.826Z,8.05
2022-10-04T22:15:55.275Z,8.35
2022-10-04T22:18:23.881Z,9.43
2022-10-04T22:20:53.926Z,9.00
2022-10-04T22:23:24.149Z,8.35
2022-10-04T22:25:53.099Z,10.55
2022-10-04T22:28:23.739Z,8.32
2022-10-04T22:30:53.350Z,7.97
2022-10-04T22:33:30.199Z,7.75
2022-10-04T22:36:01.361Z,10.85
2022-10-04T22:38:29.854Z,8.13
2022-10-04T22:40:59.394Z,10.27
2022-10-04T22:43:27.874Z,8.73
2022-10-04T22:45:56.611Z,11.15
2022-10-04T22:48:28.922Z,12.27
2022-10-04T22:50:57.411Z,9.77
2022-10-04T22:53:28.930Z,10.10
2022-10-04T22:55:58.058Z,11.00
2022-10-04T22:58:27.921Z,12.23
2022-10-04T23:00:56.563Z,10.68
2022-10-04T23:03:31.540Z,12.32
2022-10-04T23:06:00.533Z,14.15
2022-10-04T23:08:30.798Z,11.85
2022-10-04T23:11:00.701Z,11.77
2022-10-04T23:13:29.527Z,11.07
2022-10-04T23:16:00.473Z,14.27
2022-10-04T23:18:29.874Z,12.40
2022-10-04T23:21:00.708Z,12.07
2022-10-04T23:23:31.815Z,12.35
2022-10-04T23:26:00.445Z,12.15
2022-10-04T23:28:29.245Z,12.70
2022-10-04T23:31:02.735Z,13.85
2022-10-04T23:33:31.485Z,10.90
2022-10-04T23:35:59.982Z,13.32
2022-10-04T23:38:30.716Z,12.57
2022-10-04T23:40:59.437Z,12.32
2022-10-04T23:43:31.033Z,12.15
2022-10-04T23:45:59.766Z,15.32
2022-10-04T23:48:28.665Z,12.05
2022-10-04T23:50:57.819Z,13.82
2022-10-04T23:53:28.692Z,12.10
2022-10-04T23:55:59.570Z,13.98
2022-10-04T23:58:31.128Z,12.85
